Terminal Aerodrome Forecast
Issued by NWS Missoula, MT

Home | Current Version | Previous Version | Text Only | Print | Product List | Glossary On
Versions: 1 2 3 4 5 6 7 8 9 10 11 12 13 14 15 16 17 18 19
000
FTUS45 KMSO 220530
TAFGPI
TAF
KGPI 220530Z 2206/2306 14004KT P6SM BKN045
     FM220900 00000KT P6SM VCFG BKN035
     FM221100 00000KT 1SM BR BKN010 BKN060
     FM221330 VRB03KT P6SM BKN080=

USA.gov is the U.S. government's official web portal to all federal, state and local government web resources and services.